createdAt,value
2022-11-12T00:02:34.147Z,103233.70
2022-11-12T00:05:21.879Z,103237.38
2022-11-12T00:08:10.931Z,103236.87
2022-11-12T00:10:58.554Z,103236.96
2022-11-12T00:13:46.017Z,103242.17
2022-11-12T00:16:33.066Z,103234.26
2022-11-12T00:19:20.814Z,103230.59
2022-11-12T00:22:09.529Z,103225.42
2022-11-12T00:24:56.650Z,103231.72
2022-11-12T00:27:44.663Z,103231.67
2022-11-12T00:30:32.930Z,103226.78
2022-11-12T00:33:20.744Z,103234.16
2022-11-12T00:36:10.782Z,103233.48
2022-11-12T00:38:58.071Z,103233.08
2022-11-12T00:41:45.428Z,103236.33
2022-11-12T00:44:32.771Z,103241.36
2022-11-12T00:47:20.263Z,103246.92
2022-11-12T00:50:10.447Z,103243.98
2022-11-12T00:52:57.713Z,103235.47
2022-11-12T00:55:45.417Z,103236.45
2022-11-12T00:58:34.289Z,103235.59
2022-11-12T01:01:22.656Z,103240.16
2022-11-12T01:04:11.099Z,103247.97
2022-11-12T01:06:58.512Z,103243.27
2022-11-12T01:09:46.288Z,103238.47
2022-11-12T01:12:34.033Z,103241.53
2022-11-12T01:15:21.523Z,103234.75
2022-11-12T01:18:10.934Z,103247.20
2022-11-12T01:21:06.342Z,103240.39
2022-11-12T01:23:54.133Z,103244.98
2022-11-12T01:26:41.823Z,103244.52
2022-11-12T01:29:29.154Z,103230.92
2022-11-12T01:32:16.236Z,103230.92
2022-11-12T01:35:04.481Z,103233.53
2022-11-12T01:37:52.098Z,103217.99
2022-11-12T01:40:40.033Z,103212.70
2022-11-12T01:43:27.591Z,103212.70
2022-11-12T01:46:20.547Z,103216.13
2022-11-12T01:49:10.964Z,103214.03
2022-11-12T01:52:01.537Z,103216.28
2022-11-12T01:54:52.666Z,103211.20
2022-11-12T01:57:43.345Z,103210.22
2022-11-12T02:00:30.742Z,103212.70
2022-11-12T02:03:23.934Z,103210.59
2022-11-12T02:06:14.724Z,103211.83
2022-11-12T02:09:02.182Z,103210.72
2022-11-12T02:11:49.665Z,103206.41
2022-11-12T02:14:37.825Z,103202.84
2022-11-12T02:17:25.581Z,103206.55
2022-11-12T02:20:15.528Z,103204.56
2022-11-12T02:23:03.240Z,103198.77
2022-11-12T02:25:51.149Z,103199.50
2022-11-12T02:28:38.799Z,103199.38
2022-11-12T02:31:26.371Z,103198.52
2022-11-12T02:34:13.962Z,103195.69
2022-11-12T02:37:01.452Z,103203.94
2022-11-12T02:39:48.757Z,103205.55
2022-11-12T02:42:36.203Z,103207.14
2022-11-12T02:45:23.872Z,103212.06
2022-11-12T02:48:24.853Z,103213.06
2022-11-12T02:54:35.587Z,103214.42
2022-11-12T02:57:23.676Z,103213.56
2022-11-12T03:00:14.135Z,103209.84
2022-11-12T03:03:01.587Z,103210.73
2022-11-12T03:05:57.747Z,103200.98
2022-11-12T03:08:45.207Z,103200.98
2022-11-12T03:11:32.945Z,103198.12
2022-11-12T03:14:20.096Z,103194.92
2022-11-12T03:17:07.951Z,103190.88
2022-11-12T03:19:55.162Z,103190.88
2022-11-12T03:22:41.513Z,103191.95
2022-11-12T03:25:29.738Z,103192.23
2022-11-12T03:28:17.887Z,103179.14
2022-11-12T03:31:05.184Z,103184.20
2022-11-12T03:33:52.950Z,103196.42
2022-11-12T03:36:40.617Z,103189.99
2022-11-12T03:39:28.197Z,103184.44
2022-11-12T03:42:15.515Z,103181.97
2022-11-12T03:45:02.846Z,103186.41
2022-11-12T03:47:55.944Z,103183.96
2022-11-12T03:50:43.730Z,103189.00
2022-11-12T03:53:30.774Z,103189.39
2022-11-12T03:56:17.978Z,103188.38
2022-11-12T03:59:06.088Z,103185.05
2022-11-12T04:01:53.464Z,103194.42
2022-11-12T04:04:58.703Z,103200.94
2022-11-12T04:08:04.064Z,103194.30
2022-11-12T04:10:52.008Z,103200.92
2022-11-12T04:13:41.946Z,103191.09
2022-11-12T04:16:47.220Z,103191.09
2022-11-12T04:19:52.597Z,103199.22
2022-11-12T04:22:39.928Z,103203.41
2022-11-12T04:25:44.912Z,103191.84
2022-11-12T04:28:32.355Z,103188.98
2022-11-12T04:31:20.182Z,103192.31
2022-11-12T04:34:27.402Z,103188.89
2022-11-12T04:37:14.951Z,103190.36
2022-11-12T04:40:03.698Z,103192.08
2022-11-12T04:43:08.951Z,103187.64
2022-11-12T04:45:57.454Z,103186.91
2022-11-12T04:48:44.882Z,103181.36
2022-11-12T04:51:49.789Z,103181.36
2022-11-12T04:54:37.350Z,103189.59
2022-11-12T04:57:24.824Z,103186.27
2022-11-12T05:00:14.832Z,103181.44
2022-11-12T05:03:02.538Z,103185.88
2022-11-12T05:05:49.800Z,103177.61
2022-11-12T05:08:37.733Z,103178.22
2022-11-12T05:11:25.219Z,103168.00
2022-11-12T05:14:13.140Z,103164.92
2022-11-12T05:17:00.556Z,103164.78
2022-11-12T05:19:47.933Z,103161.94
2022-11-12T05:22:45.574Z,103157.98
2022-11-12T05:25:24.405Z,103159.11
2022-11-12T05:28:11.678Z,103151.72
2022-11-12T05:30:59.240Z,103149.10
2022-11-12T05:33:46.597Z,103146.17
2022-11-12T05:36:34.259Z,103146.17
2022-11-12T05:39:21.976Z,103142.13
2022-11-12T05:42:13.547Z,103145.44
2022-11-12T05:45:00.659Z,103151.59
2022-11-12T05:47:49.234Z,103156.87
2022-11-12T05:50:45.438Z,103153.81
2022-11-12T05:53:25.873Z,103143.10
2022-11-12T05:56:13.538Z,103143.34
2022-11-12T05:59:01.912Z,103143.79
2022-11-12T06:01:49.856Z,103147.52
2022-11-12T06:04:37.014Z,103147.52
2022-11-12T06:07:24.845Z,103151.72
2022-11-12T06:10:20.183Z,103164.23
2022-11-12T06:13:03.351Z,103164.23
2022-11-12T06:15:51.911Z,103158.47
2022-11-12T06:18:39.647Z,103155.45
2022-11-12T06:21:27.959Z,103158.53
2022-11-12T06:24:16.104Z,103161.64
2022-11-12T06:27:03.805Z,103158.45
2022-11-12T06:29:51.488Z,103167.03
2022-11-12T06:32:38.923Z,103171.11
2022-11-12T06:35:26.321Z,103166.66
2022-11-12T06:38:13.680Z,103173.71
2022-11-12T06:41:01.943Z,103173.71
2022-11-12T06:43:49.760Z,103168.75
2022-11-12T06:46:37.365Z,103168.75
2022-11-12T06:49:25.335Z,103169.70
2022-11-12T06:52:16.505Z,103171.52
2022-11-12T06:55:02.754Z,103166.05
2022-11-12T06:57:54.754Z,103170.04
2022-11-12T07:00:42.305Z,103167.61
2022-11-12T07:03:29.793Z,103173.20
2022-11-12T07:06:20.079Z,103169.70
2022-11-12T07:09:08.056Z,103179.52
2022-11-12T07:11:55.607Z,103175.03
2022-11-12T07:14:42.918Z,103177.50
2022-11-12T07:17:31.439Z,103187.26
2022-11-12T07:20:19.021Z,103194.39
2022-11-12T07:23:06.644Z,103188.36
2022-11-12T07:25:59.855Z,103189.99
2022-11-12T07:28:48.512Z,103192.09
2022-11-12T07:31:36.220Z,103199.51
2022-11-12T07:34:24.154Z,103196.27
2022-11-12T07:37:11.787Z,103195.56
2022-11-12T07:40:00.076Z,103188.20
2022-11-12T07:42:47.729Z,103193.86
2022-11-12T07:45:35.574Z,103190.09
2022-11-12T07:48:22.844Z,103193.52
2022-11-12T07:51:15.659Z,103193.70
2022-11-12T07:54:03.037Z,103193.54
2022-11-12T07:56:50.186Z,103194.94
2022-11-12T07:59:41.798Z,103197.66
2022-11-12T08:02:26.493Z,103204.03
2022-11-12T08:05:17.680Z,103203.42
2022-11-12T08:08:03.468Z,103206.53
2022-11-12T08:10:59.054Z,103204.43
2022-11-12T08:13:46.699Z,103203.94
2022-11-12T08:16:34.634Z,103204.28
2022-11-12T08:19:21.917Z,103207.01
2022-11-12T08:22:11.342Z,103215.30
2022-11-12T08:24:58.919Z,103214.86
2022-11-12T08:27:46.537Z,103216.09
2022-11-12T08:30:34.522Z,103213.50
2022-11-12T08:33:22.118Z,103221.66
2022-11-12T08:36:13.725Z,103219.90
2022-11-12T08:39:01.083Z,103219.83
2022-11-12T08:41:48.498Z,103218.09
2022-11-12T08:44:35.860Z,103223.44
2022-11-12T08:47:23.601Z,103223.53
2022-11-12T08:50:12.363Z,103227.95
2022-11-12T08:53:08.026Z,103228.67
2022-11-12T08:55:56.600Z,103224.55
2022-11-12T08:58:44.060Z,103222.19
2022-11-12T09:01:32.406Z,103221.93
2022-11-12T09:04:19.566Z,103220.48
2022-11-12T09:07:09.710Z,103224.44
2022-11-12T09:09:56.725Z,103220.58
2022-11-12T09:12:44.282Z,103217.52
2022-11-12T09:15:39.916Z,103214.58
2022-11-12T09:18:21.254Z,103225.88
2022-11-12T09:21:09.299Z,103223.26
2022-11-12T09:23:56.581Z,103222.16
2022-11-12T09:26:43.941Z,103231.05
2022-11-12T09:29:31.640Z,103227.58
2022-11-12T09:32:19.055Z,103232.91
2022-11-12T09:35:08.366Z,103236.39
2022-11-12T09:37:55.779Z,103230.70
2022-11-12T09:40:48.746Z,103227.00
2022-11-12T09:43:42.474Z,103227.33
2022-11-12T09:46:47.914Z,103227.33
2022-11-12T09:49:41.327Z,103230.55
2022-11-12T09:52:30.615Z,103230.72
2022-11-12T09:55:20.871Z,103229.80
2022-11-12T09:58:16.651Z,103228.67
2022-11-12T10:01:10.074Z,103223.28
2022-11-12T10:04:11.558Z,103221.13
2022-11-12T10:07:18.668Z,103206.75
2022-11-12T10:10:18.667Z,103206.75
2022-11-12T10:13:25.592Z,103216.51
2022-11-12T10:16:42.383Z,103218.27
2022-11-12T10:19:41.858Z,103213.37
2022-11-12T10:22:43.742Z,103202.42
2022-11-12T10:25:33.159Z,103209.78
2022-11-12T10:28:39.175Z,103189.64
2022-11-12T10:31:26.977Z,103192.99
2022-11-12T10:34:22.491Z,103188.98
2022-11-12T10:37:21.127Z,103191.60
2022-11-12T10:40:40.394Z,103192.51
2022-11-12T10:43:27.770Z,103187.02
2022-11-12T10:46:21.217Z,103183.44
2022-11-12T10:49:17.402Z,103179.32
2022-11-12T10:52:07.927Z,103181.03
2022-11-12T10:55:19.330Z,103176.39
2022-11-12T10:58:22.624Z,103176.05
2022-11-12T11:01:18.501Z,103165.56
2022-11-12T11:04:11.018Z,103165.40
2022-11-12T11:07:24.783Z,103162.33
2022-11-12T11:10:17.256Z,103152.82
2022-11-12T11:13:13.300Z,103149.80
2022-11-12T11:16:06.026Z,103147.16
2022-11-12T11:19:02.142Z,103142.53
2022-11-12T11:22:00.487Z,103148.14
2022-11-12T11:25:05.776Z,103138.20
2022-11-12T11:28:02.107Z,103128.66
2022-11-12T11:31:07.287Z,103130.96
2022-11-12T11:34:18.208Z,103132.27
2022-11-12T11:37:08.909Z,103137.69
2022-11-12T11:40:07.815Z,103132.97
2022-11-12T11:43:07.117Z,103124.17
2022-11-12T11:46:05.909Z,103125.33
2022-11-12T11:49:24.297Z,103126.54
2022-11-12T11:52:32.943Z,103127.03
2022-11-12T11:55:42.719Z,103127.87
2022-11-12T11:58:59.687Z,103127.87
2022-11-12T12:02:02.034Z,103119.30
2022-11-12T12:04:53.006Z,103111.09
2022-11-12T12:07:52.427Z,103109.45
2022-11-12T12:13:43.110Z,103112.56
2022-11-12T12:16:51.572Z,103107.13
2022-11-12T12:19:51.020Z,103118.81
2022-11-12T12:22:41.222Z,103101.70
2022-11-12T12:25:34.467Z,103102.67
2022-11-12T12:28:25.337Z,103100.66
2022-11-12T12:31:16.206Z,103099.99
2022-11-12T12:34:23.991Z,103095.44
2022-11-12T12:37:22.674Z,103089.94
2022-11-12T12:40:31.750Z,103087.08
2022-11-12T12:43:24.894Z,103083.55
2022-11-12T12:46:15.084Z,103079.38
2022-11-12T12:49:05.425Z,103081.13
2022-11-12T12:51:55.920Z,103080.32
2022-11-12T12:54:54.519Z,103066.93
2022-11-12T12:57:42.252Z,103064.84
2022-11-12T13:00:35.725Z,103060.97
2022-11-12T13:03:43.592Z,103053.46
2022-11-12T13:06:48.867Z,103055.36
2022-11-12T13:09:36.270Z,103053.69
2022-11-12T13:12:27.156Z,103052.48
2022-11-12T13:15:16.659Z,103051.05
2022-11-12T13:18:06.753Z,103050.98
2022-11-12T13:21:15.508Z,103042.17
2022-11-12T13:24:11.323Z,103036.45
2022-11-12T13:27:00.428Z,103028.84
2022-11-12T13:29:49.035Z,103029.87
2022-11-12T13:32:44.738Z,103035.67
2022-11-12T13:35:37.209Z,103034.73
2022-11-12T13:38:24.980Z,103031.02
2022-11-12T13:41:22.724Z,103038.56
2022-11-12T13:44:14.169Z,103032.27
2022-11-12T13:47:01.888Z,103030.19
2022-11-12T13:49:49.932Z,103020.46
2022-11-12T13:52:40.097Z,103022.22
2022-11-12T13:55:27.945Z,103017.41
2022-11-12T13:58:33.063Z,103012.55
2022-11-12T14:01:23.305Z,103007.16
2022-11-12T14:04:23.913Z,103006.98
2022-11-12T14:07:32.007Z,103003.56
2022-11-12T14:10:36.942Z,103007.16
2022-11-12T14:13:46.487Z,103007.13
2022-11-12T14:16:51.706Z,103007.94
2022-11-12T14:20:03.471Z,103000.56
2022-11-12T14:22:51.202Z,102994.09
2022-11-12T14:25:50.466Z,102994.09
2022-11-12T14:28:39.688Z,102988.70
2022-11-12T14:31:27.285Z,103000.33
2022-11-12T14:34:22.280Z,103001.50
2022-11-12T14:37:12.897Z,103003.09
2022-11-12T14:40:00.247Z,103011.11
2022-11-12T14:42:48.248Z,102990.80
2022-11-12T14:45:35.797Z,102990.80
2022-11-12T14:48:23.312Z,103007.47
2022-11-12T14:51:14.004Z,102996.39
2022-11-12T14:54:10.287Z,103005.19
2022-11-12T14:56:59.465Z,103003.69
2022-11-12T14:59:46.988Z,103001.66
2022-11-12T15:02:53.443Z,102988.77
2022-11-12T15:05:24.614Z,102985.73
2022-11-12T15:08:12.835Z,102986.31
2022-11-12T15:11:24.142Z,102982.56
2022-11-12T15:14:14.994Z,102979.52
2022-11-12T15:17:04.344Z,102993.20
2022-11-12T15:19:51.475Z,103004.80
2022-11-12T15:22:39.499Z,102998.61
2022-11-12T15:25:30.552Z,102997.67
2022-11-12T15:28:25.592Z,102997.84
2022-11-12T15:31:21.793Z,102989.67
2022-11-12T15:34:30.446Z,102991.99
2022-11-12T15:37:25.325Z,102997.03
2022-11-12T15:40:22.567Z,102990.63
2022-11-12T15:43:16.150Z,102985.66
2022-11-12T15:46:03.963Z,102992.44
2022-11-12T15:48:55.743Z,102994.38
2022-11-12T15:51:40.442Z,102985.50
2022-11-12T15:54:27.651Z,102988.13
2022-11-12T15:57:21.437Z,102986.27
2022-11-12T16:00:17.203Z,102989.41
2022-11-12T16:03:21.587Z,102986.19
2022-11-12T16:06:13.948Z,102986.19
2022-11-12T16:09:01.729Z,102982.97
2022-11-12T16:11:51.317Z,102982.11
2022-11-12T16:14:38.818Z,102984.02
2022-11-12T16:17:26.482Z,102976.84
2022-11-12T16:20:17.680Z,102975.13
2022-11-12T16:23:05.204Z,102968.30
2022-11-12T16:25:52.796Z,102964.50
2022-11-12T16:28:40.601Z,102972.39
2022-11-12T16:31:28.366Z,102968.28
2022-11-12T16:34:15.941Z,102967.27
2022-11-12T16:37:03.673Z,102968.95
2022-11-12T16:39:51.111Z,102968.95
2022-11-12T16:42:40.245Z,102972.24
2022-11-12T16:45:30.649Z,102972.92
2022-11-12T16:48:23.141Z,102970.67
2022-11-12T16:51:20.594Z,102966.86
2022-11-12T16:54:07.226Z,102968.22
2022-11-12T16:56:54.559Z,102974.02
2022-11-12T16:59:41.940Z,102969.22
2022-11-12T17:02:29.615Z,102970.73
2022-11-12T17:05:20.607Z,102969.36
2022-11-12T17:08:10.964Z,102969.88
2022-11-12T17:10:58.853Z,102973.92
2022-11-12T17:13:46.753Z,102973.92
2022-11-12T17:16:34.222Z,102975.32
2022-11-12T17:19:21.657Z,102971.83
2022-11-12T17:22:11.267Z,102967.01
2022-11-12T17:24:58.708Z,102956.88
2022-11-12T17:27:46.104Z,102959.48
2022-11-12T17:30:33.890Z,102962.52
2022-11-12T17:33:21.387Z,102962.52
2022-11-12T17:36:14.228Z,102956.16
2022-11-12T17:39:01.843Z,102956.33
2022-11-12T17:41:50.116Z,102956.61
2022-11-12T17:44:37.898Z,102960.84
2022-11-12T17:47:25.748Z,102965.70
2022-11-12T17:50:14.088Z,102957.56
2022-11-12T17:53:01.219Z,102959.09
2022-11-12T17:55:48.762Z,102954.31
2022-11-12T17:58:36.224Z,102951.42
2022-11-12T18:01:26.347Z,102948.22
2022-11-12T18:04:13.774Z,102958.59
2022-11-12T18:07:01.259Z,102958.34
2022-11-12T18:09:48.723Z,102954.24
2022-11-12T18:12:36.645Z,102959.68
2022-11-12T18:15:24.298Z,102960.39
2022-11-12T18:18:11.381Z,102960.39
2022-11-12T18:20:59.153Z,102950.82
2022-11-12T18:23:46.669Z,102950.82
2022-11-12T18:26:34.465Z,102950.92
2022-11-12T18:29:21.849Z,102954.73
2022-11-12T18:32:11.071Z,102944.69
2022-11-12T18:34:58.600Z,102947.80
2022-11-12T18:37:46.051Z,102950.66
2022-11-12T18:40:33.901Z,102951.77
2022-11-12T18:43:21.254Z,102947.41
2022-11-12T18:46:12.090Z,102948.79
2022-11-12T18:48:59.612Z,102946.12
2022-11-12T18:51:47.413Z,102948.78
2022-11-12T18:54:34.996Z,102948.78
2022-11-12T18:57:22.646Z,102943.47
2022-11-12T19:00:12.282Z,102939.60
2022-11-12T19:02:59.969Z,102939.75
2022-11-12T19:05:48.113Z,102933.08
2022-11-12T19:08:36.244Z,102935.30
2022-11-12T19:11:23.417Z,102939.70
2022-11-12T19:14:12.069Z,102950.05
2022-11-12T19:16:59.862Z,102942.77
2022-11-12T19:19:47.604Z,102941.57
2022-11-12T19:22:34.984Z,102943.05
2022-11-12T19:25:22.717Z,102935.77
2022-11-12T19:28:11.494Z,102937.44
2022-11-12T19:30:59.109Z,102944.23
2022-11-12T19:33:47.553Z,102936.78
2022-11-12T19:36:35.065Z,102939.27
2022-11-12T19:39:22.720Z,102942.89
2022-11-12T19:42:11.488Z,102940.91
2022-11-12T19:44:59.037Z,102939.00
2022-11-12T19:47:47.432Z,102936.31
2022-11-12T19:50:36.587Z,102928.88
2022-11-12T19:53:23.992Z,102936.27
2022-11-12T19:56:14.131Z,102934.26
2022-11-12T19:59:02.091Z,102935.58
2022-11-12T20:01:49.508Z,102937.61
2022-11-12T20:04:37.211Z,102942.07
2022-11-12T20:07:25.061Z,102939.63
2022-11-12T20:10:14.327Z,102931.95
2022-11-12T20:13:03.217Z,102931.14
2022-11-12T20:15:50.902Z,102942.80
2022-11-12T20:18:38.316Z,102939.81
2022-11-12T20:21:26.783Z,102941.91
2022-11-12T20:24:14.329Z,102936.55
2022-11-12T20:27:01.950Z,102936.55
2022-11-12T20:29:49.558Z,102936.63
2022-11-12T20:32:37.002Z,102938.69
2022-11-12T20:35:24.773Z,102932.34
2022-11-12T20:38:12.009Z,102923.19
2022-11-12T20:41:02.647Z,102921.09
2022-11-12T20:43:55.612Z,102926.30
2022-11-12T20:46:43.057Z,102922.99
2022-11-12T20:49:30.675Z,102922.99
2022-11-12T20:52:18.563Z,102905.69
2022-11-12T20:55:07.876Z,102905.69
2022-11-12T20:57:55.159Z,102888.06
2022-11-12T21:00:42.934Z,102910.43
2022-11-12T21:03:30.407Z,102916.88
2022-11-12T21:06:21.265Z,102913.83
2022-11-12T21:09:08.541Z,102913.80
2022-11-12T21:11:55.900Z,102917.21
2022-11-12T21:14:49.040Z,102909.26
2022-11-12T21:17:32.503Z,102908.48
2022-11-12T21:20:19.939Z,102901.62
2022-11-12T21:23:07.331Z,102897.39
2022-11-12T21:25:55.028Z,102901.47
2022-11-12T21:28:42.590Z,102896.53
2022-11-12T21:31:30.696Z,102905.41
2022-11-12T21:34:18.062Z,102895.88
2022-11-12T21:37:05.855Z,102897.02
2022-11-12T21:39:53.213Z,102900.17
2022-11-12T21:42:46.917Z,102894.75
2022-11-12T21:45:34.599Z,102895.61
2022-11-12T21:48:22.133Z,102891.73
2022-11-12T21:51:13.144Z,102894.00
2022-11-12T21:54:04.106Z,102891.14
2022-11-12T21:56:51.623Z,102884.84
2022-11-12T21:59:39.074Z,102885.36
2022-11-12T22:02:26.567Z,102881.48
2022-11-12T22:05:15.090Z,102885.20
2022-11-12T22:08:02.512Z,102874.03
2022-11-12T22:10:49.873Z,102870.98
2022-11-12T22:13:38.641Z,102868.75
2022-11-12T22:16:29.451Z,102868.75
2022-11-12T22:19:16.896Z,102864.37
2022-11-12T22:22:06.399Z,102862.30
2022-11-12T22:24:53.921Z,102862.30
2022-11-12T22:27:41.140Z,102860.42
2022-11-12T22:30:29.210Z,102866.38
2022-11-12T22:33:16.975Z,102867.88
2022-11-12T22:36:09.156Z,102869.11
2022-11-12T22:38:56.993Z,102869.11
2022-11-12T22:41:44.654Z,102870.39
2022-11-12T22:44:32.198Z,102871.05
2022-11-12T22:47:18.355Z,102861.09
2022-11-12T22:50:07.620Z,102855.37
2022-11-12T22:52:56.537Z,102849.63
2022-11-12T22:55:44.347Z,102853.06
2022-11-12T22:58:33.378Z,102852.15
2022-11-12T23:01:32.717Z,102860.21
2022-11-12T23:04:20.029Z,102860.21
2022-11-12T23:07:07.724Z,102852.80
2022-11-12T23:09:55.718Z,102853.06
2022-11-12T23:12:43.672Z,102855.28
2022-11-12T23:15:31.326Z,102850.43
2022-11-12T23:18:18.284Z,102844.70
2022-11-12T23:21:11.285Z,102836.38
2022-11-12T23:23:59.896Z,102837.23
2022-11-12T23:26:47.299Z,102832.81
2022-11-12T23:29:34.987Z,102830.03
2022-11-12T23:32:22.472Z,102822.94
2022-11-12T23:35:11.318Z,102823.44
2022-11-12T23:37:58.654Z,102826.36
2022-11-12T23:40:57.070Z,102828.73
2022-11-12T23:43:45.406Z,102824.75
2022-11-12T23:46:33.191Z,102820.19
2022-11-12T23:49:20.758Z,102806.59
2022-11-12T23:52:09.573Z,102805.42
2022-11-12T23:54:57.051Z,102803.06
2022-11-12T23:57:44.998Z,102798.75
